createdAt,value
2022-11-20T00:00:56.339Z,5.70
2022-11-20T00:01:57.822Z,2.90
2022-11-20T00:02:59.259Z,4.90
2022-11-20T00:04:01.242Z,4.85
2022-11-20T00:05:02.666Z,4.38
2022-11-20T00:06:06.072Z,4.93
2022-11-20T00:07:07.654Z,5.55
2022-11-20T00:08:09.128Z,5.15
2022-11-20T00:09:10.930Z,4.68
2022-11-20T00:10:12.539Z,5.15
2022-11-20T00:11:16.706Z,6.55
2022-11-20T00:12:18.270Z,5.38
2022-11-20T00:13:19.686Z,5.00
2022-11-20T00:14:22.482Z,9.68
2022-11-20T00:15:23.893Z,3.53
2022-11-20T00:16:27.310Z,5.97
2022-11-20T00:17:28.780Z,4.35
2022-11-20T00:18:30.759Z,7.30
2022-11-20T00:19:32.206Z,5.13
2022-11-20T00:20:33.668Z,5.78
2022-11-20T00:21:35.105Z,4.10
2022-11-20T00:22:36.518Z,6.15
2022-11-20T00:23:37.928Z,4.45
2022-11-20T00:24:42.986Z,5.05
2022-11-20T00:25:44.732Z,3.70
2022-11-20T00:26:46.161Z,6.55
2022-11-20T00:27:47.609Z,4.10
2022-11-20T00:28:51.455Z,5.80
2022-11-20T00:29:54.208Z,5.15
2022-11-20T00:31:01.926Z,5.07
2022-11-20T00:32:03.500Z,5.70
2022-11-20T00:33:04.935Z,4.90
2022-11-20T00:34:06.370Z,4.30
2022-11-20T00:35:08.169Z,4.88
2022-11-20T00:36:11.892Z,7.03
2022-11-20T00:37:13.347Z,5.85
2022-11-20T00:38:14.769Z,3.67
2022-11-20T00:39:16.239Z,4.80
2022-11-20T00:40:17.769Z,6.47
2022-11-20T00:41:19.275Z,6.70
2022-11-20T00:42:20.726Z,6.68
2022-11-20T00:43:22.279Z,4.18
2022-11-20T00:44:23.684Z,4.82
2022-11-20T00:45:26.442Z,6.38
2022-11-20T00:46:28.932Z,7.30
2022-11-20T00:47:30.379Z,4.93
2022-11-20T00:48:32.608Z,4.75
2022-11-20T00:49:34.047Z,4.60
2022-11-20T00:50:35.492Z,4.35
2022-11-20T00:51:36.985Z,7.63
2022-11-20T00:52:38.422Z,8.40
2022-11-20T00:53:39.841Z,7.72
2022-11-20T00:54:41.234Z,7.95
2022-11-20T00:55:42.615Z,7.90
2022-11-20T00:56:44.040Z,9.32
2022-11-20T00:57:45.468Z,8.93
2022-11-20T00:58:48.914Z,7.60
2022-11-20T00:59:50.332Z,7.25
2022-11-20T01:00:53.496Z,10.85
2022-11-20T01:01:54.946Z,8.25
2022-11-20T01:02:56.763Z,7.03
2022-11-20T01:04:00.122Z,7.05
2022-11-20T01:05:01.543Z,6.82
2022-11-20T01:06:04.074Z,8.50
2022-11-20T01:07:05.527Z,7.43
2022-11-20T01:08:06.974Z,7.35
2022-11-20T01:09:13.293Z,6.30
2022-11-20T01:10:14.847Z,8.32
2022-11-20T01:11:18.640Z,5.80
2022-11-20T01:12:20.083Z,6.25
2022-11-20T01:13:25.502Z,8.02
2022-11-20T01:14:27.389Z,7.65
2022-11-20T01:15:28.816Z,6.47
2022-11-20T01:16:33.532Z,7.45
2022-11-20T01:17:34.966Z,9.82
2022-11-20T01:18:37.317Z,7.65
2022-11-20T01:19:38.844Z,9.40
2022-11-20T01:20:40.275Z,7.78
2022-11-20T01:21:43.946Z,6.88
2022-11-20T01:22:45.373Z,5.03
2022-11-20T01:23:47.903Z,9.77
2022-11-20T01:24:49.352Z,9.68
2022-11-20T01:25:50.769Z,9.80
2022-11-20T01:26:52.745Z,6.32
2022-11-20T01:27:54.176Z,8.93
2022-11-20T01:28:56.715Z,6.22
2022-11-20T01:30:01.087Z,7.15
2022-11-20T01:31:11.794Z,6.65
2022-11-20T01:32:14.575Z,6.78
2022-11-20T01:33:16.015Z,7.47
2022-11-20T01:34:19.515Z,7.70
2022-11-20T01:35:21.054Z,7.75
2022-11-20T01:36:25.692Z,7.13
2022-11-20T01:37:27.135Z,8.43
2022-11-20T01:38:28.551Z,8.80
2022-11-20T01:39:30.048Z,7.00
2022-11-20T01:40:31.470Z,7.45
2022-11-20T01:41:34.891Z,6.95
2022-11-20T01:42:36.359Z,8.23
2022-11-20T01:43:37.823Z,5.72
2022-11-20T01:44:54.905Z,5.03
2022-11-20T01:46:02.216Z,8.00
2022-11-20T01:47:05.853Z,5.55
2022-11-20T01:48:08.666Z,6.30
2022-11-20T01:49:16.149Z,7.15
2022-11-20T01:50:23.456Z,7.95
2022-11-20T01:51:30.337Z,6.32
2022-11-20T01:52:35.665Z,6.95
2022-11-20T01:53:37.959Z,6.85
2022-11-20T01:54:44.001Z,7.05
2022-11-20T01:55:49.319Z,8.63
2022-11-20T01:56:52.729Z,8.52
2022-11-20T01:57:54.340Z,5.70
2022-11-20T01:58:59.409Z,8.70
2022-11-20T02:00:04.273Z,8.60
2022-11-20T02:01:06.153Z,7.90
2022-11-20T02:02:07.652Z,6.15
2022-11-20T02:03:13.335Z,6.88
2022-11-20T02:04:16.616Z,7.40
2022-11-20T02:05:23.990Z,7.53
2022-11-20T02:06:28.772Z,7.03
2022-11-20T02:07:30.871Z,5.40
2022-11-20T02:08:33.602Z,6.60
2022-11-20T02:09:35.043Z,5.15
2022-11-20T02:10:36.576Z,8.02
2022-11-20T02:11:38.027Z,8.70
2022-11-20T02:12:39.544Z,9.43
2022-11-20T02:13:41.488Z,6.40
2022-11-20T02:14:42.915Z,6.90
2022-11-20T02:15:44.956Z,6.63
2022-11-20T02:16:47.852Z,6.95
2022-11-20T02:17:49.516Z,6.63
2022-11-20T02:18:54.496Z,7.63
2022-11-20T02:19:56.019Z,7.95
2022-11-20T02:21:03.654Z,4.97
2022-11-20T02:22:12.022Z,6.97
2022-11-20T02:23:19.427Z,6.78
2022-11-20T02:24:23.476Z,6.60
2022-11-20T02:25:27.022Z,9.60
2022-11-20T02:26:30.389Z,6.45
2022-11-20T02:27:32.007Z,7.90
2022-11-20T02:28:33.720Z,9.57
2022-11-20T02:29:39.137Z,6.63
2022-11-20T02:30:40.552Z,5.88
2022-11-20T02:31:44.198Z,10.43
2022-11-20T02:32:45.721Z,7.20
2022-11-20T02:33:47.128Z,6.25
2022-11-20T02:34:49.008Z,6.10
2022-11-20T02:35:50.489Z,9.00
2022-11-20T02:36:53.667Z,5.68
2022-11-20T02:37:57.072Z,7.43
2022-11-20T02:38:58.492Z,8.77
2022-11-20T02:40:01.586Z,7.88
2022-11-20T02:41:03.099Z,7.28
2022-11-20T02:42:04.727Z,8.52
2022-11-20T02:43:06.327Z,6.20
2022-11-20T02:44:07.727Z,9.02
2022-11-20T02:45:09.876Z,8.63
2022-11-20T02:46:11.353Z,7.85
2022-11-20T02:47:12.839Z,7.75
2022-11-20T02:48:14.267Z,8.57
2022-11-20T02:49:15.748Z,7.53
2022-11-20T02:50:17.624Z,7.95
2022-11-20T02:51:19.080Z,8.07
2022-11-20T02:52:20.556Z,7.30
2022-11-20T02:53:22.014Z,8.68
2022-11-20T02:54:23.721Z,8.63
2022-11-20T02:55:26.496Z,8.02
2022-11-20T02:56:28.099Z,7.32
2022-11-20T02:57:29.558Z,8.13
2022-11-20T02:58:31.467Z,8.90
2022-11-20T02:59:32.934Z,10.13
2022-11-20T03:00:34.373Z,8.15
2022-11-20T03:01:35.945Z,7.25
2022-11-20T03:02:37.425Z,8.05
2022-11-20T03:03:39.122Z,9.85
2022-11-20T03:04:40.657Z,9.77
2022-11-20T03:05:42.103Z,9.88
2022-11-20T03:06:43.528Z,9.35
2022-11-20T03:07:45.040Z,8.38
2022-11-20T03:08:46.562Z,10.35
2022-11-20T03:09:48.027Z,8.52
2022-11-20T03:10:50.794Z,8.18
2022-11-20T03:11:52.250Z,9.50
2022-11-20T03:12:54.872Z,7.63
2022-11-20T03:13:56.308Z,7.90
2022-11-20T03:14:57.824Z,7.75
2022-11-20T03:15:59.612Z,8.75
2022-11-20T03:17:01.051Z,9.05
2022-11-20T03:18:02.494Z,8.15
2022-11-20T03:19:04.064Z,7.68
2022-11-20T03:20:06.862Z,9.35
2022-11-20T03:21:09.022Z,7.40
2022-11-20T03:22:10.482Z,8.50
2022-11-20T03:23:11.927Z,7.70
2022-11-20T03:24:13.436Z,8.02
2022-11-20T03:25:14.896Z,8.85
2022-11-20T03:26:19.719Z,8.02
2022-11-20T03:27:21.167Z,10.93
2022-11-20T03:28:22.607Z,7.93
2022-11-20T03:29:24.247Z,9.70
2022-11-20T03:30:30.410Z,6.65
2022-11-20T03:31:34.117Z,7.80
2022-11-20T03:32:35.530Z,7.28
2022-11-20T03:33:37.114Z,6.93
2022-11-20T03:34:38.553Z,7.05
2022-11-20T03:35:40.009Z,9.93
2022-11-20T03:36:43.305Z,8.70
2022-11-20T03:37:44.725Z,7.93
2022-11-20T03:38:46.751Z,8.10
2022-11-20T03:39:48.200Z,7.22
2022-11-20T03:40:49.595Z,7.63
2022-11-20T03:41:52.355Z,7.88
2022-11-20T03:42:53.787Z,7.40
2022-11-20T03:43:57.336Z,6.95
2022-11-20T03:44:58.755Z,7.43
2022-11-20T03:46:00.862Z,7.20
2022-11-20T03:47:02.313Z,8.10
2022-11-20T03:48:04.192Z,9.38
2022-11-20T03:49:06.054Z,8.18
2022-11-20T03:50:08.262Z,8.13
2022-11-20T03:51:11.794Z,8.45
2022-11-20T03:52:13.341Z,8.35
2022-11-20T03:53:14.891Z,8.55
2022-11-20T03:54:16.332Z,7.65
2022-11-20T03:55:17.952Z,7.43
2022-11-20T03:56:22.982Z,7.32
2022-11-20T03:57:25.733Z,6.70
2022-11-20T03:58:27.155Z,8.35
2022-11-20T03:59:28.614Z,9.90
2022-11-20T04:00:30.059Z,7.88
2022-11-20T04:01:33.401Z,8.55
2022-11-20T04:02:34.913Z,7.00
2022-11-20T04:03:37.212Z,5.57
2022-11-20T04:04:38.672Z,8.57
2022-11-20T04:05:40.118Z,6.65
2022-11-20T04:06:41.569Z,8.25
2022-11-20T04:07:43.033Z,8.73
2022-11-20T04:08:47.485Z,5.57
2022-11-20T04:09:51.200Z,7.97
2022-11-20T04:10:52.660Z,6.53
2022-11-20T04:11:54.095Z,9.73
2022-11-20T04:12:56.853Z,6.50
2022-11-20T04:13:59.715Z,7.60
2022-11-20T04:15:01.726Z,8.25
2022-11-20T04:16:03.280Z,8.05
2022-11-20T04:17:04.813Z,8.10
2022-11-20T04:18:06.255Z,8.45
2022-11-20T04:19:11.438Z,9.00
2022-11-20T04:20:12.876Z,6.65
2022-11-20T04:21:14.327Z,8.00
2022-11-20T04:22:15.799Z,7.90
2022-11-20T04:23:17.202Z,7.45
2022-11-20T04:24:18.609Z,7.35
2022-11-20T04:25:20.037Z,7.70
2022-11-20T04:26:23.029Z,9.60
2022-11-20T04:27:24.483Z,7.70
2022-11-20T04:28:27.317Z,7.90
2022-11-20T04:29:28.869Z,7.88
2022-11-20T04:30:30.347Z,7.88
2022-11-20T04:31:34.743Z,8.57
2022-11-20T04:32:36.173Z,7.75
2022-11-20T04:33:38.563Z,6.63
2022-11-20T04:34:40.002Z,7.47
2022-11-20T04:35:41.441Z,7.55
2022-11-20T04:36:42.856Z,9.45
2022-11-20T04:37:44.265Z,7.40
2022-11-20T04:38:46.179Z,9.65
2022-11-20T04:39:47.610Z,8.95
2022-11-20T04:40:49.042Z,7.97
2022-11-20T04:41:50.498Z,9.90
2022-11-20T04:42:51.912Z,10.18
2022-11-20T04:43:56.155Z,6.03
2022-11-20T04:44:57.783Z,7.47
2022-11-20T04:46:00.718Z,9.65
2022-11-20T04:47:02.151Z,10.48
2022-11-20T04:48:03.846Z,10.10
2022-11-20T04:49:05.948Z,8.30
2022-11-20T04:50:08.220Z,8.63
2022-11-20T04:51:09.679Z,10.88
2022-11-20T04:52:11.130Z,10.32
2022-11-20T04:53:12.807Z,8.48
2022-11-20T04:54:14.257Z,11.75
2022-11-20T04:55:15.848Z,8.43
2022-11-20T04:56:17.579Z,7.15
2022-11-20T04:57:19.323Z,7.60
2022-11-20T04:58:20.758Z,8.68
2022-11-20T04:59:23.905Z,6.55
2022-11-20T05:00:25.611Z,8.25
2022-11-20T05:01:27.768Z,7.63
2022-11-20T05:02:31.371Z,10.45
2022-11-20T05:03:33.306Z,9.18
2022-11-20T05:04:34.809Z,8.20
2022-11-20T05:05:36.310Z,9.10
2022-11-20T05:06:37.752Z,9.90
2022-11-20T05:07:39.230Z,6.97
2022-11-20T05:08:41.130Z,6.60
2022-11-20T05:09:42.688Z,7.47
2022-11-20T05:10:44.129Z,5.93
2022-11-20T05:11:49.169Z,7.18
2022-11-20T05:12:53.018Z,7.18
2022-11-20T05:13:54.503Z,7.07
2022-11-20T05:14:57.329Z,7.80
2022-11-20T05:16:02.632Z,8.35
2022-11-20T05:17:04.295Z,6.43
2022-11-20T05:18:05.796Z,7.05
2022-11-20T05:19:07.216Z,6.78
2022-11-20T05:20:09.810Z,8.93
2022-11-20T05:21:12.474Z,9.73
2022-11-20T05:22:13.904Z,7.43
2022-11-20T05:23:15.372Z,7.45
2022-11-20T05:24:16.833Z,7.60
2022-11-20T05:25:18.276Z,6.35
2022-11-20T05:26:21.020Z,7.53
2022-11-20T05:27:22.460Z,7.28
2022-11-20T05:28:25.552Z,7.30
2022-11-20T05:29:26.990Z,7.25
2022-11-20T05:30:29.772Z,9.63
2022-11-20T05:31:31.206Z,7.72
2022-11-20T05:32:32.621Z,8.23
2022-11-20T05:33:34.895Z,7.43
2022-11-20T05:34:36.740Z,7.30
2022-11-20T05:35:38.163Z,7.30
2022-11-20T05:36:39.569Z,9.80
2022-11-20T05:37:40.981Z,8.95
2022-11-20T05:38:43.304Z,7.40
2022-11-20T05:39:44.748Z,8.27
2022-11-20T05:40:46.183Z,8.15
2022-11-20T05:41:47.597Z,7.68
2022-11-20T05:42:49.016Z,8.00
2022-11-20T05:43:50.899Z,8.55
2022-11-20T05:44:52.341Z,8.70
2022-11-20T05:45:55.617Z,9.20
2022-11-20T05:46:57.074Z,9.90
2022-11-20T05:47:59.314Z,9.35
2022-11-20T05:49:00.738Z,9.45
2022-11-20T05:50:02.462Z,8.32
2022-11-20T05:51:06.022Z,10.98
2022-11-20T05:52:07.486Z,8.45
2022-11-20T05:53:08.881Z,8.52
2022-11-20T05:54:10.307Z,10.10
2022-11-20T05:55:11.814Z,10.10
2022-11-20T05:56:15.383Z,9.00
2022-11-20T05:57:17.545Z,11.40
2022-11-20T05:58:18.975Z,10.32
2022-11-20T05:59:20.711Z,12.30
2022-11-20T06:00:22.576Z,11.32
2022-11-20T06:01:26.539Z,10.50
2022-11-20T06:02:28.046Z,10.65
2022-11-20T06:03:29.475Z,12.07
2022-11-20T06:04:30.960Z,12.68
2022-11-20T06:05:34.565Z,12.50
2022-11-20T06:06:36.005Z,9.98
2022-11-20T06:07:37.445Z,11.77
2022-11-20T06:08:38.868Z,11.30
2022-11-20T06:09:40.468Z,12.35
2022-11-20T06:10:41.889Z,12.88
2022-11-20T06:11:43.385Z,12.85
2022-11-20T06:12:44.849Z,12.18
2022-11-20T06:13:46.786Z,12.02
2022-11-20T06:14:48.205Z,13.95
2022-11-20T06:15:50.250Z,11.32
2022-11-20T06:16:53.094Z,12.25
2022-11-20T06:17:54.981Z,12.43
2022-11-20T06:18:56.441Z,12.88
2022-11-20T06:19:57.874Z,15.50
2022-11-20T06:21:04.473Z,18.63
2022-11-20T06:22:05.915Z,12.68
2022-11-20T06:23:07.324Z,12.25
2022-11-20T06:24:10.411Z,12.90
2022-11-20T06:25:11.861Z,12.68
2022-11-20T06:26:15.741Z,14.48
2022-11-20T06:27:17.447Z,14.15
2022-11-20T06:28:18.916Z,14.52
2022-11-20T06:29:20.861Z,16.83
2022-11-20T06:30:22.517Z,15.50
2022-11-20T06:31:26.190Z,13.10
2022-11-20T06:32:28.957Z,13.13
2022-11-20T06:33:31.150Z,14.82
2022-11-20T06:34:32.568Z,15.57
2022-11-20T06:35:34.014Z,13.20
2022-11-20T06:36:35.478Z,17.00
2022-11-20T06:37:36.907Z,14.13
2022-11-20T06:38:39.186Z,14.98
2022-11-20T06:39:40.607Z,16.95
2022-11-20T06:40:42.809Z,15.45
2022-11-20T06:41:44.307Z,15.90
2022-11-20T06:42:46.005Z,13.90
2022-11-20T06:43:47.712Z,15.20
2022-11-20T06:44:49.148Z,13.93
2022-11-20T06:45:53.322Z,13.82
2022-11-20T06:46:54.757Z,14.15
2022-11-20T06:47:59.362Z,13.65
2022-11-20T06:49:00.809Z,17.30
2022-11-20T06:50:02.317Z,13.98
2022-11-20T06:51:04.331Z,17.50
2022-11-20T06:52:05.779Z,13.15
2022-11-20T06:53:07.197Z,13.75
2022-11-20T06:54:08.607Z,15.48
2022-11-20T06:55:10.049Z,14.35
2022-11-20T06:56:11.535Z,17.45
2022-11-20T06:57:13.005Z,15.57
2022-11-20T06:58:15.640Z,13.35
2022-11-20T06:59:17.126Z,17.08
2022-11-20T07:00:18.829Z,16.52
2022-11-20T07:01:20.311Z,14.60
2022-11-20T07:02:21.790Z,12.68
2022-11-20T07:03:24.600Z,15.68
2022-11-20T07:04:26.289Z,14.88
2022-11-20T07:05:27.761Z,16.52
2022-11-20T07:06:29.178Z,17.58
2022-11-20T07:07:30.687Z,15.00
2022-11-20T07:08:32.795Z,14.90
2022-11-20T07:09:34.246Z,17.65
2022-11-20T07:10:36.399Z,15.88
2022-11-20T07:11:37.841Z,15.25
2022-11-20T07:12:39.274Z,16.50
2022-11-20T07:13:40.727Z,16.98
2022-11-20T07:14:42.335Z,15.75
2022-11-20T07:15:43.775Z,15.60
2022-11-20T07:16:45.381Z,17.10
2022-11-20T07:17:46.831Z,14.95
2022-11-20T07:18:51.044Z,13.73
2022-11-20T07:19:52.661Z,15.98
2022-11-20T07:20:54.152Z,13.00
2022-11-20T07:21:55.559Z,20.15
2022-11-20T07:22:57.898Z,17.08
2022-11-20T07:23:59.475Z,15.77
2022-11-20T07:25:00.941Z,15.32
2022-11-20T07:26:04.240Z,13.63
2022-11-20T07:27:05.715Z,12.95
2022-11-20T07:28:07.116Z,13.65
2022-11-20T07:29:08.799Z,13.70
2022-11-20T07:30:11.057Z,14.32
2022-11-20T07:31:17.577Z,14.60
2022-11-20T07:32:20.744Z,12.25
2022-11-20T07:33:22.387Z,13.52
2022-11-20T07:34:25.127Z,13.00
2022-11-20T07:35:26.565Z,12.85
2022-11-20T07:36:27.995Z,14.75
2022-11-20T07:37:29.417Z,12.80
2022-11-20T07:38:31.033Z,13.18
2022-11-20T07:39:32.452Z,12.77
2022-11-20T07:40:33.880Z,13.05
2022-11-20T07:41:35.291Z,12.57
2022-11-20T07:42:36.723Z,12.32
2022-11-20T07:43:41.249Z,12.43
2022-11-20T07:44:43.159Z,15.30
2022-11-20T07:45:44.609Z,12.13
2022-11-20T07:46:46.014Z,11.30
2022-11-20T07:47:47.526Z,11.20
2022-11-20T07:48:48.947Z,12.05
2022-11-20T07:49:51.747Z,12.18
2022-11-20T07:50:54.848Z,13.15
2022-11-20T07:51:59.334Z,12.07
2022-11-20T07:53:05.719Z,9.73
2022-11-20T07:54:07.198Z,12.40
2022-11-20T07:55:10.156Z,9.40
2022-11-20T07:56:11.565Z,26.83
2022-11-20T07:57:13.003Z,19.50
2022-11-20T07:58:14.642Z,21.35
2022-11-20T07:59:16.672Z,16.02
2022-11-20T08:00:18.353Z,10.18
2022-11-20T08:01:19.845Z,10.73
2022-11-20T08:02:21.334Z,8.57
2022-11-20T08:03:25.100Z,9.18
2022-11-20T08:04:27.239Z,8.20
2022-11-20T08:05:29.989Z,9.85
2022-11-20T08:06:31.540Z,10.10
2022-11-20T08:07:36.695Z,9.40
2022-11-20T08:08:42.614Z,8.15
2022-11-20T08:09:44.596Z,6.65
2022-11-20T08:10:46.098Z,7.07
2022-11-20T08:11:47.517Z,15.52
2022-11-20T08:12:50.833Z,10.07
2022-11-20T08:13:52.257Z,9.52
2022-11-20T08:14:53.696Z,10.55
2022-11-20T08:15:55.123Z,9.00
2022-11-20T08:16:56.514Z,8.50
2022-11-20T08:18:30.129Z,9.18
2022-11-20T08:19:27.451Z,7.97
2022-11-20T08:20:30.191Z,8.85
2022-11-20T08:21:37.786Z,8.30
2022-11-20T08:22:39.805Z,8.48
2022-11-20T08:23:41.277Z,8.52
2022-11-20T08:24:42.690Z,8.10
2022-11-20T08:25:44.188Z,8.50
2022-11-20T08:26:45.612Z,7.90
2022-11-20T08:27:47.010Z,9.15
2022-11-20T08:28:48.487Z,9.98
2022-11-20T08:29:49.945Z,10.18
2022-11-20T08:30:51.687Z,9.23
2022-11-20T08:31:53.195Z,11.82
2022-11-20T08:32:55.391Z,11.32
2022-11-20T08:33:56.955Z,7.25
2022-11-20T08:34:58.360Z,10.48
2022-11-20T08:36:02.363Z,11.57
2022-11-20T08:37:04.159Z,10.85
2022-11-20T08:38:06.947Z,10.95
2022-11-20T08:39:08.393Z,9.65
2022-11-20T08:40:14.768Z,7.40
2022-11-20T08:41:20.131Z,6.63
2022-11-20T08:42:21.557Z,8.07
2022-11-20T08:43:22.976Z,8.93
2022-11-20T08:44:24.402Z,7.43
2022-11-20T08:45:30.929Z,9.63
2022-11-20T08:46:36.855Z,7.13
2022-11-20T08:47:38.246Z,6.60
2022-11-20T08:48:39.665Z,10.20
2022-11-20T08:49:41.076Z,7.95
2022-11-20T08:50:42.512Z,6.38
2022-11-20T08:51:45.317Z,7.53
2022-11-20T08:52:46.753Z,7.47
2022-11-20T08:53:49.038Z,7.80
2022-11-20T08:54:50.491Z,9.20
2022-11-20T08:55:51.954Z,7.07
2022-11-20T08:56:53.401Z,7.05
2022-11-20T08:57:54.917Z,8.60
2022-11-20T09:00:18.770Z,6.68
2022-11-20T09:01:20.771Z,7.85
2022-11-20T09:02:22.200Z,6.75
2022-11-20T09:03:27.421Z,6.90
2022-11-20T09:04:32.964Z,7.35
2022-11-20T09:05:34.410Z,6.65
2022-11-20T09:06:35.843Z,8.15
2022-11-20T09:07:38.667Z,6.95
2022-11-20T09:08:40.572Z,7.10
2022-11-20T09:09:42.027Z,7.03
2022-11-20T09:10:43.556Z,6.95
2022-11-20T09:11:45.349Z,5.63
2022-11-20T09:12:49.535Z,7.07
2022-11-20T09:13:50.980Z,7.65
2022-11-20T09:14:55.052Z,12.15
2022-11-20T09:15:57.848Z,10.68
2022-11-20T09:16:59.278Z,8.23
2022-11-20T09:18:03.159Z,9.70
2022-11-20T09:19:34.130Z,6.88
2022-11-20T09:20:27.395Z,6.93
2022-11-20T09:21:29.173Z,4.88
2022-11-20T09:22:30.627Z,6.07
2022-11-20T09:23:35.730Z,5.28
2022-11-20T09:24:37.220Z,9.98
2022-11-20T09:25:38.640Z,11.43
2022-11-20T09:26:40.076Z,16.73
2022-11-20T09:27:41.506Z,6.60
2022-11-20T09:28:42.972Z,7.20
2022-11-20T09:29:44.417Z,4.47
2022-11-20T09:30:45.857Z,5.65
2022-11-20T09:31:47.302Z,5.55
2022-11-20T09:32:48.719Z,5.45
2022-11-20T09:33:50.723Z,7.10
2022-11-20T09:34:52.142Z,6.60
2022-11-20T09:35:53.661Z,4.72
2022-11-20T09:36:55.099Z,6.47
2022-11-20T09:37:56.525Z,5.32
2022-11-20T09:38:59.358Z,5.95
2022-11-20T09:40:00.782Z,5.57
2022-11-20T09:41:05.812Z,6.30
2022-11-20T09:42:26.376Z,6.00
2022-11-20T09:43:42.458Z,5.90
2022-11-20T09:45:05.786Z,5.63
2022-11-20T09:46:12.675Z,5.82
2022-11-20T09:47:23.636Z,4.15
2022-11-20T09:48:53.368Z,4.82
2022-11-20T09:50:07.322Z,5.15
2022-11-20T09:51:18.538Z,5.00
2022-11-20T09:52:28.198Z,5.65
2022-11-20T09:53:37.314Z,5.57
2022-11-20T09:54:41.813Z,4.45
2022-11-20T09:55:43.585Z,6.28
2022-11-20T09:56:48.503Z,4.45
2022-11-20T09:57:52.774Z,5.75
2022-11-20T09:58:58.615Z,8.43
2022-11-20T10:00:02.475Z,15.30
2022-11-20T10:01:11.244Z,8.13
2022-11-20T10:02:20.792Z,5.50
2022-11-20T10:03:36.887Z,6.93
2022-11-20T10:04:45.722Z,6.55
2022-11-20T10:05:51.081Z,4.97
2022-11-20T10:08:25.795Z,5.57
2022-11-20T10:09:32.537Z,13.45
2022-11-20T10:10:43.740Z,12.02
2022-11-20T10:11:54.612Z,6.80
2022-11-20T10:13:12.254Z,9.05
2022-11-20T10:14:24.770Z,4.30
2022-11-20T10:15:34.751Z,4.60
2022-11-20T10:16:44.094Z,4.68
2022-11-20T10:18:10.031Z,4.95
2022-11-20T10:19:31.870Z,8.77
2022-11-20T10:20:44.623Z,6.32
2022-11-20T10:22:00.127Z,5.60
2022-11-20T10:23:22.748Z,3.60
2022-11-20T10:24:45.414Z,4.05
2022-11-20T10:25:55.388Z,4.90
2022-11-20T10:27:04.440Z,3.92
2022-11-20T10:28:16.737Z,3.28
2022-11-20T10:29:20.139Z,4.22
2022-11-20T10:30:22.731Z,5.97
2022-11-20T10:31:32.202Z,5.00
2022-11-20T10:32:39.832Z,4.57
2022-11-20T10:34:10.639Z,4.18
2022-11-20T10:35:19.029Z,3.13
2022-11-20T10:36:27.028Z,4.20
2022-11-20T10:37:32.609Z,3.03
2022-11-20T10:38:39.933Z,3.20
2022-11-20T10:39:50.673Z,4.18
2022-11-20T10:40:58.192Z,5.45
2022-11-20T10:42:01.528Z,5.20
2022-11-20T10:43:09.196Z,4.10
2022-11-20T10:44:15.748Z,4.78
2022-11-20T10:45:37.714Z,7.00
2022-11-20T10:46:43.111Z,5.00
2022-11-20T10:47:45.158Z,4.13
2022-11-20T10:48:47.256Z,3.88
2022-11-20T10:49:53.772Z,6.75
2022-11-20T10:51:18.866Z,3.15
2022-11-20T10:52:30.152Z,2.70
2022-11-20T10:53:56.533Z,4.07
2022-11-20T10:55:07.109Z,4.85
2022-11-20T10:56:19.444Z,4.18
2022-11-20T10:57:33.629Z,4.63
2022-11-20T10:58:46.277Z,4.85
2022-11-20T11:00:01.441Z,6.07
2022-11-20T11:01:06.012Z,20.95
2022-11-20T11:02:16.814Z,10.60
2022-11-20T11:03:24.565Z,11.02
2022-11-20T11:04:36.680Z,6.50
2022-11-20T11:05:43.220Z,5.18
2022-11-20T11:06:49.215Z,7.80
2022-11-20T11:07:54.074Z,9.68
2022-11-20T11:08:59.638Z,7.38
2022-11-20T11:10:01.080Z,4.18
2022-11-20T11:11:16.963Z,21.67
2022-11-20T11:12:19.462Z,5.93
2022-11-20T11:13:22.295Z,22.38
2022-11-20T11:14:23.745Z,14.07
2022-11-20T11:15:28.701Z,11.30
2022-11-20T11:16:30.175Z,14.85
2022-11-20T11:17:33.077Z,8.90
2022-11-20T11:18:35.394Z,3.83
2022-11-20T11:19:36.830Z,7.18
2022-11-20T11:20:38.614Z,4.05
2022-11-20T11:21:52.288Z,3.72
2022-11-20T11:22:58.354Z,6.82
2022-11-20T11:24:19.697Z,5.38
2022-11-20T11:25:30.200Z,2.20
2022-11-20T11:26:32.955Z,4.78
2022-11-20T11:27:34.355Z,4.05
2022-11-20T11:28:35.809Z,3.53
2022-11-20T11:29:37.327Z,3.90
2022-11-20T11:30:43.852Z,3.67
2022-11-20T11:31:45.282Z,5.03
2022-11-20T11:32:47.522Z,9.35
2022-11-20T11:33:49.004Z,6.53
2022-11-20T11:35:00.332Z,3.95
2022-11-20T11:36:05.444Z,6.13
2022-11-20T11:37:15.070Z,4.70
2022-11-20T11:38:20.483Z,4.93
2022-11-20T11:39:22.734Z,7.28
2022-11-20T11:40:32.842Z,4.70
2022-11-20T11:41:35.976Z,6.85
2022-11-20T11:42:43.388Z,5.25
2022-11-20T11:43:53.346Z,6.30
2022-11-20T11:44:59.111Z,8.38
2022-11-20T11:46:01.112Z,8.70
2022-11-20T11:47:04.454Z,6.22
2022-11-20T11:48:10.170Z,5.65
2022-11-20T11:49:18.602Z,4.70
2022-11-20T11:50:22.784Z,4.93
2022-11-20T11:51:27.040Z,4.07
2022-11-20T11:52:31.995Z,4.55
2022-11-20T11:53:41.519Z,4.35
2022-11-20T11:54:49.363Z,5.95
2022-11-20T11:55:55.429Z,7.65
2022-11-20T11:57:01.557Z,9.68
2022-11-20T11:58:12.195Z,4.78
2022-11-20T11:59:24.669Z,4.82
2022-11-20T12:00:27.053Z,3.22
2022-11-20T12:01:33.297Z,7.82
2022-11-20T12:02:38.748Z,4.03
2022-11-20T12:03:43.029Z,2.97
2022-11-20T12:04:51.569Z,2.08
2022-11-20T12:05:58.944Z,1.50
2022-11-20T12:07:24.278Z,3.55
2022-11-20T12:08:31.016Z,1.92
2022-11-20T12:09:38.395Z,2.15
2022-11-20T12:10:46.442Z,1.88
2022-11-20T12:11:54.473Z,2.20
2022-11-20T12:13:05.045Z,3.40
2022-11-20T12:14:15.323Z,2.70
2022-11-20T12:15:26.632Z,5.53
2022-11-20T12:16:28.757Z,1.75
2022-11-20T12:17:30.286Z,3.85
2022-11-20T12:18:32.043Z,3.55
2022-11-20T12:19:35.420Z,2.83
2022-11-20T12:20:44.967Z,3.72
2022-11-20T12:22:04.151Z,2.70
2022-11-20T12:23:15.844Z,1.15
2022-11-20T12:24:40.052Z,2.60
2022-11-20T12:25:47.263Z,4.47
2022-11-20T12:27:04.547Z,2.28
2022-11-20T12:28:35.410Z,2.15
2022-11-20T12:29:49.054Z,1.25
2022-11-20T12:31:05.720Z,1.67
2022-11-20T12:32:36.737Z,1.88
2022-11-20T12:33:55.221Z,1.58
2022-11-20T12:35:11.255Z,1.33
2022-11-20T12:36:27.423Z,2.22
2022-11-20T12:37:38.562Z,4.60
2022-11-20T12:39:09.036Z,5.55
2022-11-20T12:40:24.874Z,2.17
2022-11-20T12:41:42.634Z,3.30
2022-11-20T12:42:54.061Z,5.70
2022-11-20T12:45:39.698Z,3.13
2022-11-20T12:46:47.789Z,2.05
2022-11-20T12:48:01.308Z,2.22
2022-11-20T12:49:13.602Z,2.50
2022-11-20T12:50:28.973Z,2.20
2022-11-20T12:51:48.871Z,3.75
2022-11-20T12:52:56.786Z,2.10
2022-11-20T12:54:21.823Z,2.92
2022-11-20T12:55:34.594Z,3.50
2022-11-20T12:56:44.295Z,1.58
2022-11-20T12:57:54.548Z,2.50
2022-11-20T12:59:11.784Z,1.90
2022-11-20T13:00:17.725Z,5.10
2022-11-20T13:01:29.772Z,2.17
2022-11-20T13:02:45.173Z,3.65
2022-11-20T13:03:52.752Z,1.85
2022-11-20T13:05:10.631Z,1.60
2022-11-20T13:06:16.268Z,3.95
2022-11-20T13:07:20.656Z,3.25
2022-11-20T13:08:24.965Z,6.47
2022-11-20T13:09:27.727Z,3.10
2022-11-20T13:10:36.639Z,2.42
2022-11-20T13:11:45.406Z,2.80
2022-11-20T13:12:56.148Z,6.53
2022-11-20T13:14:14.784Z,4.03
2022-11-20T13:15:29.023Z,1.42
2022-11-20T13:16:37.202Z,1.88
2022-11-20T13:17:43.271Z,1.17
2022-11-20T13:18:44.831Z,0.88
2022-11-20T13:19:50.703Z,1.65
2022-11-20T13:20:52.260Z,0.80
2022-11-20T13:21:53.724Z,1.60
2022-11-20T13:22:57.303Z,0.88
2022-11-20T13:24:05.358Z,0.82
2022-11-20T13:25:15.215Z,1.20
2022-11-20T13:26:21.074Z,1.83
2022-11-20T13:27:23.340Z,1.42
2022-11-20T13:28:28.697Z,3.08
2022-11-20T13:29:32.758Z,2.03
2022-11-20T13:30:35.784Z,2.67
2022-11-20T13:31:43.599Z,2.10
2022-11-20T13:32:53.830Z,4.28
2022-11-20T13:33:57.487Z,5.05
2022-11-20T13:35:01.203Z,3.47
2022-11-20T13:36:04.726Z,2.90
2022-11-20T13:37:06.397Z,3.00
2022-11-20T13:38:09.896Z,3.25
2022-11-20T13:39:11.327Z,3.92
2022-11-20T13:40:20.746Z,4.35
2022-11-20T13:41:29.675Z,6.22
2022-11-20T13:42:31.088Z,3.72
2022-11-20T13:43:37.593Z,2.75
2022-11-20T13:44:45.173Z,4.28
2022-11-20T13:45:56.136Z,4.43
2022-11-20T13:46:57.556Z,2.47
2022-11-20T13:48:03.557Z,2.85
2022-11-20T13:49:09.954Z,1.88
2022-11-20T13:50:15.404Z,3.00
2022-11-20T13:51:33.276Z,1.05
2022-11-20T13:52:50.837Z,0.77
2022-11-20T13:54:10.643Z,2.38
2022-11-20T13:55:19.979Z,1.75
2022-11-20T13:56:29.766Z,3.17
2022-11-20T13:57:55.373Z,1.30
2022-11-20T13:59:05.297Z,3.08
2022-11-20T14:00:15.550Z,3.00
2022-11-20T14:01:20.732Z,2.17
2022-11-20T14:02:24.193Z,4.10
2022-11-20T14:03:58.923Z,2.35
2022-11-20T14:04:54.553Z,2.85
2022-11-20T14:06:00.023Z,2.67
2022-11-20T14:07:01.923Z,0.77
2022-11-20T14:08:04.930Z,0.80
2022-11-20T14:09:06.389Z,2.53
2022-11-20T14:10:21.018Z,1.88
2022-11-20T14:11:25.171Z,3.03
2022-11-20T14:12:30.354Z,3.03
2022-11-20T14:13:31.965Z,0.90
2022-11-20T14:14:34.492Z,1.10
2022-11-20T14:15:41.809Z,2.70
2022-11-20T14:16:46.521Z,2.05